Time;durP1;ratioP1;P1;durP2;ratioP2;P2;SDS_P1;SDS_P2;PMS_P1;PMS_P2;Temp;Humidity;BMP_temperature;BMP_pressure;BME280_temperature;BME280_humidity;BME280_pressure;Samples;Min_cycle;Max_cycle;Signal;HPM_P1;HPM_P2
2022/02/12 00:00:27;;;;;;;1.40;1.23;;;-5.20;99.90;;;;;;5051610;28;20384;-74
2022/02/12 00:02:54;;;;;;;2.30;1.20;;;-5.20;99.90;;;;;;5051444;28;20025;-74
2022/02/12 00:05:24;;;;;;;1.65;1.17;;;-5.10;99.90;;;;;;5051935;28;20045;-74
2022/02/12 00:07:54;;;;;;;2.42;1.20;;;-5.10;99.90;;;;;;5051491;28;20120;-74
2022/02/12 00:10:20;;;;;;;3.20;1.40;;;-5.00;99.90;;;;;;5051669;28;20037;-74
2022/02/12 00:12:46;;;;;;;5.57;1.25;;;-5.00;99.90;;;;;;5051411;28;20032;-74
2022/02/12 00:15:12;;;;;;;1.30;1.20;;;-5.00;99.90;;;;;;5051652;28;20033;-74
2022/02/12 00:17:38;;;;;;;2.80;1.40;;;-5.00;99.90;;;;;;5051626;28;20035;-74
2022/02/12 00:20:05;;;;;;;1.52;1.00;;;-5.00;99.90;;;;;;5050276;28;20029;-74
2022/02/12 00:22:32;;;;;;;3.17;1.10;;;-5.00;99.90;;;;;;5051876;28;20024;-74
2022/02/12 00:24:57;;;;;;;1.73;1.63;;;-5.00;99.90;;;;;;5051572;28;20049;-74
2022/02/12 00:27:23;;;;;;;1.77;1.20;;;-4.90;99.90;;;;;;5051726;28;20055;-73
2022/02/12 00:29:49;;;;;;;2.92;1.20;;;-4.90;99.90;;;;;;5052406;28;20135;-74
2022/02/12 00:32:14;;;;;;;3.13;1.13;;;-4.80;99.90;;;;;;5055296;28;20021;-74
2022/02/12 00:34:40;;;;;;;2.35;1.17;;;-4.80;99.90;;;;;;5054064;28;20211;-74
2022/02/12 00:37:06;;;;;;;3.60;1.23;;;-4.80;99.90;;;;;;5055126;28;20055;-74
2022/02/12 00:39:32;;;;;;;2.28;1.17;;;-4.80;99.90;;;;;;5055308;28;20104;-74
2022/02/12 00:41:59;;;;;;;1.30;1.15;;;-4.90;99.90;;;;;;5055059;28;20036;-74
2022/02/12 00:44:24;;;;;;;5.93;1.58;;;-4.80;99.90;;;;;;5055446;28;20021;-73
2022/02/12 00:46:51;;;;;;;3.33;1.30;;;-4.90;99.90;;;;;;5053546;28;20028;-73
2022/02/12 00:49:17;;;;;;;1.55;1.15;;;-4.90;99.90;;;;;;5055267;28;20044;-74
2022/02/12 00:51:43;;;;;;;4.38;1.17;;;-5.00;99.90;;;;;;5054963;28;20025;-74
2022/02/12 00:54:09;;;;;;;1.55;1.27;;;-5.00;99.90;;;;;;5055156;28;20400;-74
2022/02/12 00:56:35;;;;;;;1.77;1.20;;;-5.00;99.90;;;;;;5054843;28;20025;-73
2022/02/12 00:59:00;;;;;;;1.25;1.10;;;-4.90;99.90;;;;;;5053493;28;20021;-73
2022/02/12 01:01:26;;;;;;;1.10;1.00;;;-4.90;99.90;;;;;;5054888;28;20108;-74
2022/02/12 01:03:53;;;;;;;2.85;1.10;;;-4.80;99.90;;;;;;5054665;28;20031;-73
2022/02/12 01:06:19;;;;;;;2.17;1.25;;;-4.80;99.90;;;;;;5054993;28;20036;-73
2022/02/12 01:08:45;;;;;;;2.13;1.27;;;-4.80;99.90;;;;;;5054669;28;20106;-74
2022/02/12 01:11:13;;;;;;;3.00;1.27;;;-4.80;99.90;;;;;;5054981;28;20464;-74
2022/02/12 01:13:39;;;;;;;1.80;1.20;;;-4.70;99.90;;;;;;5054550;28;20032;-74
2022/02/12 01:16:05;;;;;;;1.95;1.23;;;-4.70;99.90;;;;;;5054503;28;20025;-74
2022/02/12 01:18:31;;;;;;;2.35;1.23;;;-4.70;99.90;;;;;;5054405;28;20025;-74
2022/02/12 01:20:57;;;;;;;2.20;1.00;;;-4.60;99.90;;;;;;5054341;28;20017;-75
2022/02/12 01:23:23;;;;;;;1.88;1.33;;;-4.60;99.90;;;;;;5054674;28;20385;-74
2022/02/12 01:25:50;;;;;;;1.23;1.08;;;-4.50;99.90;;;;;;5054287;28;20225;-72
2022/02/12 01:28:16;;;;;;;2.72;1.13;;;-4.50;99.90;;;;;;5054250;28;20041;-72
2022/02/12 01:30:43;;;;;;;3.85;1.30;;;-4.50;99.90;;;;;;5054338;28;20025;-72
2022/02/12 01:33:09;;;;;;;1.25;0.90;;;-4.50;99.90;;;;;;5054050;28;20029;-72
2022/02/12 01:35:35;;;;;;;7.50;1.27;;;-4.50;99.90;;;;;;5054263;28;20017;-72
2022/02/12 01:38:00;;;;;;;1.50;1.20;;;-4.50;99.90;;;;;;5054046;28;20404;-72
2022/02/12 01:40:27;;;;;;;1.65;1.00;;;-4.50;99.90;;;;;;5054126;28;20060;-72
2022/02/12 01:42:53;;;;;;;1.05;1.00;;;-4.50;99.90;;;;;;5052691;28;20056;-72
2022/02/12 01:45:19;;;;;;;0.90;0.90;;;-4.50;99.90;;;;;;5054140;28;20683;-72
2022/02/12 01:47:44;;;;;;;0.93;0.93;;;-4.40;99.90;;;;;;5053645;28;20124;-72
2022/02/12 01:50:12;;;;;;;0.98;0.90;;;-4.40;99.90;;;;;;5053906;28;20021;-72
2022/02/12 01:52:39;;;;;;;4.22;1.27;;;-4.40;99.90;;;;;;5053825;28;20025;-73
2022/02/12 01:55:06;;;;;;;3.42;0.93;;;-4.30;99.90;;;;;;5053949;28;20025;-73
2022/02/12 01:57:32;;;;;;;3.28;1.20;;;-4.40;99.90;;;;;;5053703;28;20035;-72
2022/02/12 01:59:58;;;;;;;2.08;1.20;;;-4.30;99.90;;;;;;5053999;28;20112;-73
2022/02/12 02:02:24;;;;;;;1.98;1.10;;;-4.30;99.90;;;;;;5053667;28;20075;-72
2022/02/12 02:04:50;;;;;;;3.33;1.10;;;-4.30;99.90;;;;;;5053545;28;20032;-73
2022/02/12 02:07:17;;;;;;;0.80;0.80;;;-4.40;99.90;;;;;;5053426;28;20025;-73
2022/02/12 02:09:44;;;;;;;1.95;1.05;;;-4.30;99.90;;;;;;5053864;28;20040;-73
2022/02/12 02:12:10;;;;;;;1.35;1.08;;;-4.30;99.90;;;;;;5053344;28;20059;-73
2022/02/12 02:14:41;;;;;;;1.52;0.90;;;-4.30;99.90;;;;;;5053355;28;20061;-73
2022/02/12 02:17:09;;;;;;;2.35;1.30;;;-4.30;99.90;;;;;;5053346;28;20049;-73
2022/02/12 02:19:35;;;;;;;4.38;1.17;;;-4.30;99.90;;;;;;5053304;28;20025;-73
2022/02/12 02:22:02;;;;;;;1.15;1.02;;;-4.30;99.90;;;;;;5053134;28;20024;-73
2022/02/12 02:56:02;;;;;;;1.02;0.93;;;-4.50;99.90;;;;;;5051897;28;20052;-72
2022/02/12 02:58:29;;;;;;;1.15;1.10;;;-4.50;99.90;;;;;;5052948;28;20025;-72
2022/02/12 03:00:55;;;;;;;2.72;1.20;;;-4.50;99.90;;;;;;5052531;28;20036;-72
2022/02/12 03:37:02;;;;;;;1.60;0.90;;;-4.60;99.90;;;;;;5831815;22;19928;-72
2022/02/12 03:39:27;;;;;;;6.95;1.15;;;-4.60;99.90;;;;;;5012325;28;20121;-71
2022/02/12 03:41:53;;;;;;;1.50;1.00;;;-4.60;99.90;;;;;;5012115;28;20137;-71
2022/02/12 03:44:19;;;;;;;1.38;1.10;;;-4.60;99.90;;;;;;5012200;28;20037;-71
2022/02/12 03:46:45;;;;;;;2.10;1.08;;;-4.60;99.90;;;;;;5012381;28;20026;-72
2022/02/12 03:49:10;;;;;;;1.75;1.10;;;-4.60;99.90;;;;;;5018314;28;20501;-72
2022/02/12 03:51:36;;;;;;;2.25;1.17;;;-4.50;99.90;;;;;;5012285;28;20024;-72
2022/02/12 03:54:01;;;;;;;3.22;1.20;;;-4.50;99.90;;;;;;5012108;28;20022;-72
2022/02/12 03:56:27;;;;;;;1.10;1.00;;;-4.50;99.90;;;;;;5012263;28;20376;-72
2022/02/12 03:58:53;;;;;;;1.40;1.00;;;-4.50;99.90;;;;;;5012077;28;20076;-72
2022/02/12 04:01:19;;;;;;;1.42;1.00;;;-4.60;99.90;;;;;;5011978;28;20386;-73
2022/02/12 04:03:45;;;;;;;1.52;1.10;;;-4.60;99.90;;;;;;5012553;28;20114;-73
2022/02/12 04:06:10;;;;;;;1.92;1.10;;;-4.60;99.90;;;;;;5016038;28;20026;-73
2022/02/12 04:08:36;;;;;;;2.63;1.02;;;-4.60;99.90;;;;;;5015922;28;20060;-73
2022/02/12 04:11:02;;;;;;;1.90;1.00;;;-4.60;99.90;;;;;;5016110;28;20026;-73
2022/02/12 04:13:30;;;;;;;3.55;1.00;;;-4.70;99.90;;;;;;5015931;28;20515;-73
2022/02/12 04:15:56;;;;;;;2.35;1.00;;;-4.70;99.90;;;;;;5015887;28;20030;-73
2022/02/12 04:18:22;;;;;;;1.75;1.10;;;-4.70;99.90;;;;;;5015867;28;20080;-73
2022/02/12 04:20:48;;;;;;;1.10;1.00;;;-4.70;99.90;;;;;;5015833;28;20022;-73
2022/02/12 04:23:13;;;;;;;1.00;0.80;;;-4.70;99.90;;;;;;5015665;28;20167;-73
2022/02/12 04:25:39;;;;;;;1.20;1.10;;;-4.80;99.90;;;;;;5015743;28;20026;-73
2022/02/12 04:28:06;;;;;;;1.65;1.20;;;-4.80;99.90;;;;;;5015510;28;20029;-72
2022/02/12 04:30:32;;;;;;;3.20;1.08;;;-4.90;99.90;;;;;;5015964;28;20025;-72
2022/02/12 04:32:58;;;;;;;2.50;1.20;;;-4.90;99.90;;;;;;5015477;28;20377;-72
2022/02/12 04:35:24;;;;;;;2.80;1.35;;;-5.00;99.90;;;;;;5015497;28;20080;-72
2022/02/12 04:37:50;;;;;;;1.80;1.08;;;-5.10;99.90;;;;;;5015269;28;20053;-72
2022/02/12 04:40:15;;;;;;;5.20;1.40;;;-5.20;99.90;;;;;;5015621;28;20500;-72
2022/02/12 04:42:41;;;;;;;1.20;1.10;;;-5.20;99.90;;;;;;5015685;28;20026;-73
2022/02/12 04:45:08;;;;;;;1.73;1.25;;;-5.20;99.90;;;;;;5015288;28;20366;-73
2022/02/12 04:47:36;;;;;;;1.85;1.20;;;-5.30;99.90;;;;;;5015189;28;20048;-73
2022/02/12 04:50:03;;;;;;;1.40;1.30;;;-5.30;99.90;;;;;;5015304;28;20469;-73
2022/02/12 04:52:29;;;;;;;1.73;1.17;;;-5.40;99.90;;;;;;5015201;28;20030;-73
2022/02/12 04:54:54;;;;;;;2.15;1.83;;;-5.50;99.90;;;;;;5015278;28;20068;-73
2022/02/12 04:57:20;;;;;;;1.35;1.10;;;-5.50;99.90;;;;;;5015029;28;20026;-73
2022/02/12 04:59:46;;;;;;;4.45;1.20;;;-5.50;99.90;;;;;;5015170;28;20081;-73
2022/02/12 05:02:12;;;;;;;2.45;1.40;;;-5.60;99.90;;;;;;5015164;28;20028;-73
2022/02/12 05:04:37;;;;;;;2.85;1.40;;;-5.60;99.90;;;;;;5015082;28;20018;-73
2022/02/12 05:07:03;;;;;;;1.10;1.10;;;-5.70;99.90;;;;;;5014887;28;20026;-72
2022/02/12 05:09:34;;;;;;;1.60;1.33;;;-5.70;99.90;;;;;;4997522;28;20040;-72
2022/02/12 05:12:00;;;;;;;1.27;1.20;;;-5.80;99.90;;;;;;5014878;28;20477;-72
2022/02/12 05:14:29;;;;;;;1.73;1.55;;;-5.80;99.90;;;;;;5014904;28;20049;-73
2022/02/12 05:16:55;;;;;;;1.50;1.40;;;-5.80;99.90;;;;;;5014422;28;20079;-72
2022/02/12 05:19:21;;;;;;;1.40;1.25;;;-5.90;99.90;;;;;;5014957;28;20481;-73
2022/02/12 05:21:46;;;;;;;1.63;1.40;;;-5.90;99.90;;;;;;5015131;28;20022;-73
2022/02/12 05:24:12;;;;;;;7.53;1.60;;;-6.00;99.90;;;;;;5014592;28;20376;-73
2022/02/12 05:26:38;;;;;;;2.65;1.40;;;-6.00;99.90;;;;;;5014791;28;20022;-72
2022/02/12 05:29:03;;;;;;;1.65;1.40;;;-6.10;99.90;;;;;;5014691;28;20038;-74
2022/02/12 05:31:29;;;;;;;1.92;1.02;;;-6.20;99.90;;;;;;5014507;28;20542;-68
2022/02/12 05:33:55;;;;;;;3.97;1.30;;;-6.30;99.90;;;;;;5014554;28;20037;-68
2022/02/12 05:36:21;;;;;;;1.98;1.40;;;-6.30;99.90;;;;;;5014314;28;20044;-72
2022/02/12 05:38:46;;;;;;;1.55;1.20;;;-6.40;99.90;;;;;;5014302;28;20077;-69
2022/02/12 05:41:14;;;;;;;2.55;1.10;;;-6.30;99.90;;;;;;5014253;28;20033;-70
2022/02/12 05:43:41;;;;;;;1.50;1.20;;;-5.60;99.90;;;;;;5014275;28;20032;-69
2022/02/12 05:46:07;;;;;;;1.50;1.20;;;-5.50;99.90;;;;;;5018963;28;20087;-70
2022/02/12 05:48:34;;;;;;;3.95;1.30;;;-5.70;99.90;;;;;;5032857;28;20037;-70
2022/02/12 05:51:00;;;;;;;1.40;1.30;;;-5.90;99.90;;;;;;5033487;28;20013;-72
2022/02/12 05:53:25;;;;;;;1.20;1.20;;;-6.10;99.90;;;;;;5023377;28;20100;-69
2022/02/12 05:55:52;;;;;;;1.40;1.30;;;-6.20;99.90;;;;;;4998088;28;20029;-69
2022/02/12 05:58:18;;;;;;;3.20;1.30;;;-6.20;99.90;;;;;;5015257;28;20029;-69
2022/02/12 06:00:44;;;;;;;3.10;1.40;;;-6.30;99.90;;;;;;5027540;28;20050;-66
2022/02/12 06:03:10;;;;;;;5.28;1.50;;;-6.30;99.90;;;;;;5029367;28;20107;-68
2022/02/12 06:05:36;;;;;;;3.72;1.30;;;-6.30;99.90;;;;;;5021700;28;20032;-66
2022/02/12 06:08:04;;;;;;;1.85;1.25;;;-6.30;99.90;;;;;;5025380;28;20125;-67
2022/02/12 06:10:31;;;;;;;3.45;1.70;;;-6.30;99.90;;;;;;5031018;28;20033;-67
2022/02/12 06:12:57;;;;;;;2.17;1.50;;;-6.30;99.90;;;;;;5033747;28;20099;-67
2022/02/12 06:15:23;;;;;;;1.63;1.30;;;-6.30;99.90;;;;;;5033419;28;20025;-67
2022/02/12 06:17:49;;;;;;;2.35;1.63;;;-6.30;99.90;;;;;;5033445;28;20025;-67
2022/02/12 06:20:15;;;;;;;3.10;1.55;;;-6.30;99.90;;;;;;5033378;28;20369;-67
2022/02/12 06:22:41;;;;;;;2.17;1.50;;;-6.30;99.90;;;;;;5033603;28;20389;-66
2022/02/12 06:25:07;;;;;;;3.20;1.40;;;-6.30;99.90;;;;;;5033193;28;20116;-66
2022/02/12 06:27:33;;;;;;;4.95;1.55;;;-6.30;99.90;;;;;;5032064;28;20032;-65
2022/02/12 06:29:59;;;;;;;1.65;1.42;;;-6.10;99.90;;;;;;5033560;28;20389;-65
2022/02/12 06:32:25;;;;;;;2.58;1.70;;;-6.00;99.90;;;;;;5033085;28;20408;-65
2022/02/12 06:34:51;;;;;;;2.35;1.55;;;-6.00;99.90;;;;;;5033213;28;20416;-65
2022/02/12 06:37:19;;;;;;;3.78;1.50;;;-6.00;99.90;;;;;;5032820;28;20052;-65
2022/02/12 06:39:46;;;;;;;5.28;1.40;;;-6.00;99.90;;;;;;5033421;28;20037;-65
2022/02/12 06:42:12;;;;;;;4.82;1.52;;;-6.10;99.90;;;;;;5032977;28;20451;-65
2022/02/12 06:44:37;;;;;;;1.40;1.30;;;-6.10;99.90;;;;;;5032997;28;20017;-65
2022/02/12 06:47:04;;;;;;;1.95;1.30;;;-6.20;99.90;;;;;;5032925;28;20413;-65
2022/02/12 06:49:29;;;;;;;1.83;1.42;;;-6.20;99.90;;;;;;5032774;28;20040;-65
2022/02/12 06:51:55;;;;;;;1.90;1.58;;;-6.20;99.90;;;;;;5032839;28;20022;-66
2022/02/12 06:54:21;;;;;;;2.70;1.80;;;-6.20;99.90;;;;;;5032547;28;20025;-65
2022/02/12 06:56:47;;;;;;;2.67;1.70;;;-6.20;99.90;;;;;;5015057;28;20022;-66
2022/02/12 06:59:12;;;;;;;2.45;1.20;;;-6.20;99.90;;;;;;5032594;28;20424;-66
2022/02/12 07:01:38;;;;;;;2.38;1.35;;;-6.00;99.90;;;;;;5032612;28;20034;-65
2022/02/12 07:04:04;;;;;;;2.92;1.45;;;-5.00;99.90;;;;;;5032476;28;20105;-66
2022/02/12 07:06:30;;;;;;;2.85;1.63;;;-4.60;99.90;;;;;;5032505;28;20116;-65
2022/02/12 07:08:55;;;;;;;2.55;1.75;;;-4.90;99.90;;;;;;5032341;28;20034;-64
2022/02/12 07:11:21;;;;;;;2.08;1.58;;;-5.20;99.90;;;;;;5024678;28;20018;-68
2022/02/12 07:13:47;;;;;;;3.13;2.10;;;-5.50;99.90;;;;;;5028384;28;20033;-67
2022/02/12 07:16:13;;;;;;;3.55;2.30;;;-5.70;99.90;;;;;;5041233;28;20377;-66
2022/02/12 07:18:39;;;;;;;5.28;2.22;;;-5.80;99.90;;;;;;5038256;28;20030;-64
2022/02/12 07:21:06;;;;;;;7.53;3.67;;;-5.90;99.90;;;;;;5046905;28;20021;-65
2022/02/12 07:23:32;;;;;;;5.95;2.65;;;-6.00;99.90;;;;;;5018183;28;20059;-68
2022/02/12 07:25:58;;;;;;;10.18;2.53;;;-5.50;99.90;;;;;;5044076;28;20399;-68
2022/02/12 07:28:27;;;;;;;2.03;1.73;;;-3.90;99.90;;;;;;5042527;28;20116;-67
2022/02/12 07:30:54;;;;;;;2.55;1.60;;;-2.80;99.90;;;;;;5036732;28;20025;-68
2022/02/12 07:33:19;;;;;;;4.22;1.77;;;-2.00;99.90;;;;;;5048213;28;20017;-67
2022/02/12 07:35:45;;;;;;;2.75;1.63;;;-1.60;99.90;;;;;;5037903;28;20111;-67
2022/02/12 07:38:11;;;;;;;4.88;2.13;;;-1.20;99.90;;;;;;5041701;28;20514;-68
2022/02/12 07:40:36;;;;;;;2.78;1.38;;;-0.90;99.90;;;;;;5041626;28;20025;-69
2022/02/12 07:43:02;;;;;;;1.88;1.45;;;-0.70;99.90;;;;;;5048106;28;20017;-70
2022/02/12 07:45:28;;;;;;;2.17;1.65;;;-0.50;99.90;;;;;;5011999;28;20022;-65
2022/02/12 07:47:54;;;;;;;4.68;2.15;;;-0.40;99.90;;;;;;5025627;28;20041;-65
2022/02/12 07:50:21;;;;;;;4.53;2.53;;;-1.00;99.90;;;;;;5040133;28;20051;-65
2022/02/12 07:52:47;;;;;;;4.18;2.67;;;-1.90;99.90;;;;;;5024130;28;20033;-65
2022/02/12 07:55:15;;;;;;;4.93;2.65;;;-2.80;98.90;;;;;;5004130;28;20017;-65
2022/02/12 07:57:42;;;;;;;6.18;2.70;;;-3.50;98.00;;;;;;5031140;28;20519;-66
2022/02/12 08:00:08;;;;;;;5.53;2.58;;;-3.90;98.50;;;;;;5031116;28;20060;-66
2022/02/12 08:02:34;;;;;;;4.93;2.75;;;-4.20;98.50;;;;;;5031194;28;20109;-65
2022/02/12 08:05:00;;;;;;;5.25;2.72;;;-4.40;98.00;;;;;;5012139;28;20093;-65
2022/02/12 08:07:29;;;;;;;5.00;2.75;;;-4.60;97.50;;;;;;5011417;28;20026;-66
2022/02/12 08:13:01;;;;;;;5.32;2.53;;;-4.70;99.90;;;;;;5030835;28;20269;-67
2022/02/12 08:15:28;;;;;;;4.60;2.63;;;-4.70;99.90;;;;;;5013148;28;20030;-67
2022/02/12 08:17:54;;;;;;;4.07;2.22;;;-4.90;99.90;;;;;;5026336;28;20029;-65
2022/02/12 08:20:20;;;;;;;6.68;3.45;;;-5.10;99.90;;;;;;5011466;28;20018;-66
2022/02/12 08:22:46;;;;;;;5.32;3.00;;;-5.10;99.90;;;;;;5020510;28;20473;-66
2022/02/12 08:25:12;;;;;;;4.78;3.03;;;-5.10;99.90;;;;;;5030973;28;20029;-66
2022/02/12 08:27:38;;;;;;;4.60;3.03;;;-5.20;99.90;;;;;;5031119;28;20096;-67
2022/02/12 08:30:06;;;;;;;4.63;2.70;;;-5.20;99.90;;;;;;5017571;28;20457;-66
2022/02/12 08:32:33;;;;;;;3.42;2.42;;;-5.20;99.90;;;;;;5030923;28;20436;-66
2022/02/12 08:34:58;;;;;;;3.17;1.83;;;-5.10;99.90;;;;;;5031245;28;20568;-66
2022/02/12 08:37:24;;;;;;;5.45;1.30;;;-5.10;99.90;;;;;;5030254;28;20120;-66
2022/02/12 08:39:51;;;;;;;2.63;1.33;;;-5.10;99.90;;;;;;5030981;28;20045;-66
2022/02/12 08:42:20;;;;;;;1.88;1.20;;;-5.10;99.90;;;;;;5031551;28;20128;-65
2022/02/12 08:44:47;;;;;;;2.80;1.30;;;-5.10;99.90;;;;;;5031436;28;20040;-67
2022/02/12 08:47:12;;;;;;;3.13;1.50;;;-4.90;99.90;;;;;;5031283;28;20068;-66
2022/02/12 08:49:39;;;;;;;2.58;1.10;;;-3.10;99.90;;;;;;5031126;28;20065;-67
2022/02/12 08:52:05;;;;;;;3.00;1.10;;;-2.80;99.90;;;;;;5034172;28;20381;-67
2022/02/12 08:54:31;;;;;;;4.45;1.20;;;-3.30;99.90;;;;;;5034814;28;20499;-67
2022/02/12 08:56:57;;;;;;;2.20;1.13;;;-3.80;99.90;;;;;;5034978;28;20053;-67
2022/02/12 08:59:23;;;;;;;3.75;1.20;;;-4.00;99.90;;;;;;5034785;28;20024;-67
2022/02/12 09:01:49;;;;;;;1.45;1.10;;;-4.10;99.90;;;;;;5034287;28;20026;-67
2022/02/12 09:04:15;;;;;;;1.90;1.42;;;-4.20;99.90;;;;;;5030733;28;20433;-67
2022/02/12 09:06:41;;;;;;;3.40;1.67;;;-4.20;99.90;;;;;;5015132;28;20105;-67
2022/02/12 09:09:10;;;;;;;3.95;1.27;;;-4.20;99.90;;;;;;5031835;28;20156;-67
2022/02/12 09:11:38;;;;;;;4.05;1.30;;;-4.30;99.90;;;;;;5034885;28;20048;-67
2022/02/12 09:14:05;;;;;;;4.13;1.42;;;-4.20;99.90;;;;;;5035062;28;20029;-66
2022/02/12 09:16:31;;;;;;;3.05;1.52;;;-4.20;99.90;;;;;;5034544;28;20148;-66
2022/02/12 09:18:57;;;;;;;3.10;1.60;;;-4.20;99.90;;;;;;5034581;28;20032;-66
2022/02/12 09:21:23;;;;;;;3.10;1.58;;;-4.10;99.90;;;;;;5000525;28;20018;-66
2022/02/12 09:23:49;;;;;;;5.00;1.38;;;-4.10;99.90;;;;;;5034428;28;20025;-66
2022/02/12 09:26:17;;;;;;;3.75;1.38;;;-4.10;99.90;;;;;;5034069;28;20109;-65
2022/02/12 09:28:43;;;;;;;8.55;1.25;;;-4.00;99.90;;;;;;5034182;28;20033;-65
2022/02/12 09:31:09;;;;;;;5.75;1.40;;;-4.00;99.90;;;;;;5034376;28;20104;-65
2022/02/12 09:33:35;;;;;;;3.35;1.30;;;-3.90;99.90;;;;;;5034224;28;20075;-66
2022/02/12 09:36:01;;;;;;;2.13;1.02;;;-3.80;99.90;;;;;;5034147;28;20033;-65
2022/02/12 09:38:28;;;;;;;3.75;1.30;;;-3.80;99.90;;;;;;5033909;28;20046;-65
2022/02/12 09:40:55;;;;;;;1.67;1.30;;;-3.70;99.90;;;;;;5034408;28;20038;-66
2022/02/12 09:43:26;;;;;;;3.13;1.30;;;-3.60;99.90;;;;;;5033739;28;20120;-66
2022/02/12 09:46:04;;;;;;;4.93;1.67;;;-3.60;99.90;;;;;;5034200;28;20022;-66
2022/02/12 09:48:34;;;;;;;3.25;1.15;;;-3.50;99.90;;;;;;5033734;28;20117;-66
2022/02/12 09:51:01;;;;;;;3.40;1.45;;;-3.40;99.90;;;;;;5034032;28;20040;-65
2022/02/12 09:53:30;;;;;;;2.67;1.25;;;-3.30;99.90;;;;;;5033809;28;20064;-65
2022/02/12 09:55:57;;;;;;;3.00;1.23;;;-3.30;99.90;;;;;;5033776;28;20029;-66
2022/02/12 09:58:23;;;;;;;3.70;1.13;;;-3.20;99.90;;;;;;5033928;28;20117;-66
2022/02/12 10:00:49;;;;;;;5.32;1.23;;;-3.20;99.90;;;;;;5033596;28;20575;-66
2022/02/12 10:03:16;;;;;;;2.88;1.58;;;-3.10;99.90;;;;;;5033700;28;20117;-66
2022/02/12 10:05:53;;;;;;;4.75;1.60;;;-3.00;99.90;;;;;;5033667;28;20030;-66
2022/02/12 10:08:20;;;;;;;6.40;1.35;;;-3.00;99.90;;;;;;5033394;28;20124;-66
2022/02/12 10:10:48;;;;;;;6.28;1.30;;;-2.90;99.90;;;;;;5033613;28;20060;-66
2022/02/12 10:13:14;;;;;;;2.38;1.30;;;-2.80;99.90;;;;;;5033420;28;20053;-66
2022/02/12 10:15:46;;;;;;;6.05;2.30;;;-2.80;99.90;;;;;;5033661;28;20052;-66
2022/02/12 10:18:12;;;;;;;5.32;1.55;;;-2.70;99.90;;;;;;5033367;28;20052;-66
2022/02/12 10:20:42;;;;;;;5.30;1.30;;;-2.70;99.90;;;;;;5033267;28;20060;-66
2022/02/12 10:23:08;;;;;;;5.30;1.13;;;-2.60;99.90;;;;;;5033653;28;20068;-66
2022/02/12 10:25:35;;;;;;;7.28;1.20;;;-2.60;99.90;;;;;;5033078;28;20505;-66
2022/02/12 10:28:01;;;;;;;3.38;1.63;;;-2.50;99.90;;;;;;5033156;28;20108;-66
2022/02/12 10:30:29;;;;;;;5.78;1.75;;;-2.40;99.90;;;;;;5033136;28;20034;-66
2022/02/12 10:33:06;;;;;;;4.00;1.50;;;-2.30;99.90;;;;;;5033597;28;20083;-66
2022/02/12 10:35:33;;;;;;;5.28;1.30;;;-2.10;99.90;;;;;;5033001;28;20108;-67
2022/02/12 10:38:02;;;;;;;3.80;1.30;;;-2.00;99.90;;;;;;5033077;28;20077;-67
2022/02/12 10:40:30;;;;;;;7.28;1.70;;;-1.90;99.90;;;;;;5032826;28;20022;-67
2022/02/12 10:42:56;;;;;;;3.55;1.40;;;-1.90;99.90;;;;;;5033315;28;20056;-66
2022/02/12 10:45:25;;;;;;;6.95;1.25;;;-1.80;99.90;;;;;;5032728;28;20029;-66
2022/02/12 10:47:51;;;;;;;6.22;1.88;;;-1.80;99.90;;;;;;5033097;28;20037;-66
2022/02/12 10:50:19;;;;;;;5.32;1.55;;;-1.70;99.90;;;;;;5032699;28;20048;-66
2022/02/12 10:52:56;;;;;;;6.63;1.40;;;-1.70;99.90;;;;;;5032872;28;20017;-66
2022/02/12 10:55:29;;;;;;;5.47;1.30;;;-1.60;99.90;;;;;;5032584;28;20072;-66
2022/02/12 10:58:00;;;;;;;3.28;1.20;;;-1.60;99.90;;;;;;5032731;28;20025;-66
2022/02/12 11:00:27;;;;;;;4.80;1.42;;;-1.60;99.90;;;;;;5032594;28;20112;-66
2022/02/12 11:02:57;;;;;;;5.63;1.13;;;-1.60;99.90;;;;;;5022228;28;20555;-68
2022/02/12 11:05:23;;;;;;;4.03;1.17;;;-1.60;99.90;;;;;;5012971;28;20025;-66
2022/02/12 11:07:51;;;;;;;3.92;1.15;;;-1.60;99.90;;;;;;5022400;28;20033;-66
2022/02/12 11:10:17;;;;;;;7.75;1.65;;;-1.60;99.90;;;;;;5031755;28;20104;-66
2022/02/12 11:12:43;;;;;;;7.25;1.90;;;-1.60;99.90;;;;;;5032186;28;20030;-66
2022/02/12 11:15:10;;;;;;;7.72;1.73;;;-1.60;99.90;;;;;;5031223;28;20488;-66
2022/02/12 11:17:37;;;;;;;5.60;1.75;;;-1.60;99.90;;;;;;5032239;28;20064;-66
2022/02/12 11:20:04;;;;;;;6.70;1.92;;;-1.60;99.90;;;;;;5032207;28;20137;-66
2022/02/12 11:22:30;;;;;;;7.13;1.67;;;-1.60;99.90;;;;;;5014442;28;20026;-66
2022/02/12 11:24:57;;;;;;;7.88;1.40;;;-1.60;99.90;;;;;;5032244;28;20098;-66
2022/02/12 11:27:29;;;;;;;9.95;1.63;;;-1.50;99.90;;;;;;5032001;28;20464;-66
2022/02/12 11:30:14;;;;;;;7.10;1.70;;;-1.50;99.90;;;;;;5014333;28;20041;-66
2022/02/12 11:32:44;;;;;;;13.65;2.17;;;-1.50;99.90;;;;;;5032134;28;20139;-66
2022/02/12 11:35:10;;;;;;;7.30;1.55;;;-1.40;99.90;;;;;;5032095;28;20423;-66
2022/02/12 11:37:41;;;;;;;4.28;1.63;;;-1.40;99.90;;;;;;5031635;28;20057;-66
2022/02/12 11:40:13;;;;;;;4.30;1.55;;;-1.30;99.90;;;;;;5032328;28;20473;-66
2022/02/12 11:42:49;;;;;;;7.40;1.55;;;-1.30;99.90;;;;;;5031846;28;20110;-66
2022/02/12 11:45:46;;;;;;;9.63;1.45;;;-1.30;99.90;;;;;;5014145;28;20619;-66
2022/02/12 11:48:25;;;;;;;7.40;1.25;;;-1.20;99.90;;;;;;5031799;28;20108;-67
2022/02/12 11:50:53;;;;;;;6.57;2.15;;;-1.10;99.90;;;;;;5031959;28;20504;-67
2022/02/12 11:53:54;;;;;;;7.13;1.67;;;-1.10;99.90;;;;;;5031671;28;20083;-67
2022/02/12 11:56:20;;;;;;;8.30;1.90;;;-1.00;99.90;;;;;;5031995;28;20017;-67
2022/02/12 11:58:45;;;;;;;7.47;2.25;;;-1.00;99.90;;;;;;5031815;28;20032;-68
2022/02/12 12:01:27;;;;;;;4.38;1.48;;;-1.00;99.90;;;;;;5013590;28;20064;-68
2022/02/12 12:04:02;;;;;;;6.13;1.48;;;-0.90;99.90;;;;;;5031664;28;20040;-67
2022/02/12 12:06:27;;;;;;;5.35;1.40;;;0.30;99.90;;;;;;5031824;28;20120;-67
2022/02/12 12:09:14;;;;;;;7.85;1.52;;;0.50;99.90;;;;;;5031680;28;20463;-67
2022/02/12 12:12:12;;;;;;;5.88;1.55;;;0.60;99.90;;;;;;5031195;28;20107;-67
2022/02/12 12:14:39;;;;;;;5.60;1.20;;;1.40;99.90;;;;;;5031496;28;20130;-67
2022/02/12 12:17:06;;;;;;;8.55;1.40;;;1.40;99.90;;;;;;5031577;28;20384;-68
2022/02/12 12:19:34;;;;;;;8.80;1.95;;;1.20;99.90;;;;;;5022322;28;20025;-67
2022/02/12 12:22:11;;;;;;;4.35;1.35;;;1.30;99.90;;;;;;5021149;28;20026;-67
2022/02/12 12:24:40;;;;;;;7.15;1.55;;;1.10;99.90;;;;;;5025050;28;20104;-67
2022/02/12 12:27:07;;;;;;;9.75;1.65;;;0.80;99.90;;;;;;5035115;28;20400;-67
2022/02/12 12:32:22;;;;;;;6.80;1.70;;;0.50;99.90;;;;;;5035133;28;20075;-67
2022/02/12 12:35:07;;;;;;;4.22;1.48;;;0.30;99.90;;;;;;5035418;28;20022;-67
2022/02/12 12:37:54;;;;;;;10.30;1.73;;;2.10;99.90;;;;;;5034825;28;20045;-66
2022/02/12 12:40:34;;;;;;;6.13;1.77;;;2.20;99.90;;;;;;5034925;28;20495;-66
2022/02/12 12:43:07;;;;;;;5.07;1.67;;;1.60;99.90;;;;;;5035348;28;20055;-66
2022/02/12 12:45:41;;;;;;;8.80;1.85;;;1.10;99.90;;;;;;5034921;28;20047;-67
2022/02/12 12:48:07;;;;;;;7.55;2.00;;;0.70;99.90;;;;;;5035015;28;20429;-66
2022/02/12 12:50:34;;;;;;;9.38;1.80;;;0.50;99.90;;;;;;5035090;28;20064;-66
2022/02/12 12:53:12;;;;;;;8.40;1.88;;;0.30;99.90;;;;;;5035350;28;20106;-66
2022/02/12 12:55:44;;;;;;;13.10;2.00;;;0.20;99.90;;;;;;5034756;28;20033;-66
2022/02/12 12:58:15;;;;;;;7.07;1.50;;;0.10;99.90;;;;;;5035084;28;20060;-66
2022/02/12 13:00:41;;;;;;;7.38;1.48;;;0.10;99.90;;;;;;5034774;28;20045;-66
2022/02/12 13:03:07;;;;;;;7.05;1.60;;;0.00;99.90;;;;;;5035023;28;20022;-66
2022/02/12 13:05:33;;;;;;;6.45;1.80;;;0.00;99.90;;;;;;5034738;28;20491;-66
2022/02/12 13:08:10;;;;;;;10.40;1.90;;;0.20;99.90;;;;;;5031553;28;20022;-67
2022/02/12 13:10:38;;;;;;;10.13;2.05;;;0.20;99.90;;;;;;5031877;28;20029;-67
2022/02/12 13:13:30;;;;;;;7.35;1.52;;;0.10;99.90;;;;;;5034757;28;20037;-64
2022/02/12 13:15:55;;;;;;;8.05;1.92;;;0.00;99.90;;;;;;5029927;28;20045;-64
2022/02/12 13:18:21;;;;;;;13.15;1.88;;;0.00;99.90;;;;;;5034594;28;20519;-64
2022/02/12 13:20:49;;;;;;;5.72;1.48;;;-0.10;99.90;;;;;;5034404;28;20476;-65
2022/02/12 13:23:20;;;;;;;5.20;1.67;;;-0.20;99.90;;;;;;5034627;28;20034;-65
2022/02/12 13:25:48;;;;;;;8.63;1.70;;;-0.20;99.90;;;;;;5034357;28;20057;-64
2022/02/12 13:28:16;;;;;;;8.35;1.77;;;-0.20;99.90;;;;;;5034008;28;20032;-64
2022/02/12 13:30:45;;;;;;;6.47;1.52;;;-0.30;99.90;;;;;;5034259;28;20496;-64
2022/02/12 13:33:11;;;;;;;9.45;1.77;;;-0.30;99.90;;;;;;5034292;28;20496;-63
2022/02/12 13:35:39;;;;;;;12.30;2.17;;;-0.30;99.90;;;;;;5034047;28;20052;-63
2022/02/12 13:38:06;;;;;;;9.00;1.70;;;-0.30;99.90;;;;;;5033408;28;20045;-63
2022/02/12 13:40:42;;;;;;;7.55;1.63;;;-0.30;99.90;;;;;;5033773;28;20022;-63
2022/02/12 13:43:11;;;;;;;11.20;1.98;;;-0.40;99.90;;;;;;5034298;28;20021;-63
2022/02/12 13:45:39;;;;;;;5.82;2.03;;;-0.40;99.90;;;;;;5034120;28;20076;-63
2022/02/12 13:48:09;;;;;;;6.88;1.70;;;-0.40;99.90;;;;;;5034105;28;20503;-63
2022/02/12 13:50:40;;;;;;;11.75;2.05;;;-0.30;99.90;;;;;;5032022;28;20025;-63
2022/02/12 13:53:08;;;;;;;10.88;2.20;;;-0.30;99.90;;;;;;5033304;28;20032;-63
2022/02/12 13:56:00;;;;;;;8.05;2.08;;;-0.20;99.90;;;;;;5048231;28;20031;-63
2022/02/12 13:58:28;;;;;;;9.10;1.90;;;-0.20;99.90;;;;;;5044848;28;20051;-63
2022/02/12 14:00:56;;;;;;;14.48;2.05;;;-0.20;99.90;;;;;;5053308;28;20048;-64